createdAt,value
2018-03-08T00:00:44.328Z,32.8
2018-03-08T00:01:34.192Z,32.6
2018-03-08T00:02:25.306Z,32.4
2018-03-08T00:03:14.946Z,32.1
2018-03-08T00:04:05.733Z,31.6
2018-03-08T00:04:54.920Z,31.2
2018-03-08T00:05:45.535Z,30.9
2018-03-08T00:06:35.665Z,30.7
2018-03-08T00:07:25.403Z,30.4
2018-03-08T00:08:15.729Z,29.9
2018-03-08T00:09:05.741Z,30.6
2018-03-08T00:09:55.545Z,31.2
2018-03-08T00:10:45.381Z,31.8
2018-03-08T00:11:35.939Z,32.4
2018-03-08T00:12:26.028Z,33
2018-03-08T00:13:16.077Z,33.6
2018-03-08T00:14:05.590Z,34.3
2018-03-08T00:14:55.711Z,34.3
2018-03-08T00:15:45.697Z,33.9
2018-03-08T00:16:36.074Z,33.6
2018-03-08T00:17:26.089Z,33.4
2018-03-08T00:18:16.721Z,33.3
2018-03-08T00:19:06.762Z,33.2
2018-03-08T00:19:56.546Z,33.1
2018-03-08T00:20:46.591Z,32.9
2018-03-08T00:21:36.107Z,32.8
2018-03-08T00:22:26.019Z,32.7
2018-03-08T00:23:15.567Z,32.6
2018-03-08T00:24:05.329Z,32.4
2018-03-08T00:24:56.383Z,32.3
2018-03-08T00:25:45.939Z,32.2
2018-03-08T00:26:36.301Z,32.1
2018-03-08T00:27:25.664Z,31.9
2018-03-08T00:28:15.839Z,31.8
2018-03-08T00:29:06.402Z,31.6
2018-03-08T00:29:56.214Z,31.5
2018-03-08T00:30:46.341Z,31.4
2018-03-08T00:31:35.666Z,31.2
2018-03-08T00:32:25.443Z,31.1
2018-03-08T00:33:16.321Z,30.9
2018-03-08T00:34:06.514Z,30.8
2018-03-08T00:34:55.501Z,30.7
2018-03-08T00:35:46.411Z,30.5
2018-03-08T00:36:36.193Z,30.1
2018-03-08T00:37:25.581Z,30.5
2018-03-08T00:38:16.476Z,31
2018-03-08T00:39:06.362Z,31.5
2018-03-08T00:39:57.125Z,32
2018-03-08T00:40:45.531Z,32.6
2018-03-08T00:41:37.453Z,33.1
2018-03-08T00:42:26.497Z,33.8
2018-03-08T00:43:16.865Z,34.4
2018-03-08T00:44:06.454Z,34.3
2018-03-08T00:44:57.588Z,33.8
2018-03-08T00:45:46.385Z,33.6
2018-03-08T00:46:36.138Z,33.4
2018-03-08T00:47:27.528Z,33.2
2018-03-08T00:48:17.600Z,33.1
2018-03-08T00:49:06.223Z,33
2018-03-08T00:49:57.760Z,32.9
2018-03-08T00:50:47.000Z,32.8
2018-03-08T00:51:37.167Z,32.6
2018-03-08T00:52:27.663Z,32.4
2018-03-08T00:53:18.414Z,32.3
2018-03-08T00:54:07.182Z,32.2
2018-03-08T00:54:57.695Z,32.1
2018-03-08T00:55:47.880Z,31.9
2018-03-08T00:56:37.066Z,31.8
2018-03-08T00:57:28.099Z,31.6
2018-03-08T00:58:17.854Z,31.5
2018-03-08T00:59:08.529Z,31.4
2018-03-08T00:59:57.680Z,31.3
2018-03-08T01:00:48.459Z,31.1
2018-03-08T01:01:37.850Z,31
2018-03-08T01:02:28.697Z,30.8
2018-03-08T01:03:18.589Z,30.8
2018-03-08T01:04:08.433Z,30.4
2018-03-08T01:04:58.851Z,30.2
2018-03-08T01:05:48.572Z,30.7
2018-03-08T01:06:37.735Z,31.2
2018-03-08T01:07:29.379Z,31.8
2018-03-08T01:08:18.582Z,32.3
2018-03-08T01:09:08.729Z,32.8
2018-03-08T01:09:59.091Z,33.4
2018-03-08T01:10:49.062Z,34.1
2018-03-08T01:11:39.276Z,34.5
2018-03-08T01:12:29.113Z,34
2018-03-08T01:13:19.077Z,33.7
2018-03-08T01:14:09.727Z,33.4
2018-03-08T01:14:59.401Z,33.3
2018-03-08T01:15:48.810Z,33.2
2018-03-08T01:16:39.052Z,33.1
2018-03-08T01:17:29.222Z,32.9
2018-03-08T01:18:19.574Z,32.8
2018-03-08T01:19:09.796Z,32.7
2018-03-08T01:19:59.347Z,32.6
2018-03-08T01:20:48.665Z,32.4
2018-03-08T01:21:38.701Z,32.3
2018-03-08T01:22:29.071Z,32.2
2018-03-08T01:23:19.327Z,32
2018-03-08T01:24:09.608Z,31.9
2018-03-08T01:24:59.628Z,31.8
2018-03-08T01:25:50.451Z,31.6
2018-03-08T01:26:39.546Z,31.5
2018-03-08T01:27:29.991Z,31.3
2018-03-08T01:28:20.251Z,31.2
2018-03-08T01:29:09.693Z,31.1
2018-03-08T01:30:00.285Z,30.9
2018-03-08T01:30:50.103Z,30.8
2018-03-08T01:31:40.373Z,30.6
2018-03-08T01:32:30.966Z,30.2
2018-03-08T01:33:20.752Z,30.6
2018-03-08T01:34:10.670Z,31.1
2018-03-08T01:35:00.131Z,31.6
2018-03-08T01:35:50.616Z,32.1
2018-03-08T01:36:41.215Z,32.7
2018-03-08T01:37:31.490Z,33.3
2018-03-08T01:38:22.125Z,33.9
2018-03-08T01:39:10.829Z,34.5
2018-03-08T01:40:00.458Z,34.1
2018-03-08T01:40:50.234Z,33.7
2018-03-08T01:41:40.004Z,33.5
2018-03-08T01:42:29.958Z,33.3
2018-03-08T01:43:21.437Z,33.2
2018-03-08T01:44:11.935Z,33.1
2018-03-08T01:45:00.924Z,32.9
2018-03-08T01:45:50.825Z,32.8
2018-03-08T01:46:41.178Z,32.7
2018-03-08T01:47:31.095Z,32.6
2018-03-08T01:48:21.436Z,32.4
2018-03-08T01:49:11.702Z,32.2
2018-03-08T01:50:01.380Z,31.6
2018-03-08T01:50:52.210Z,31.3
2018-03-08T01:51:41.291Z,30.9
2018-03-08T01:52:32.527Z,30.7
2018-03-08T01:53:22.031Z,30.4
2018-03-08T01:54:11.286Z,29.9
2018-03-08T01:55:01.432Z,30.4
2018-03-08T01:55:51.906Z,31.1
2018-03-08T01:56:42.479Z,31.7
2018-03-08T01:57:31.336Z,32.3
2018-03-08T01:58:21.398Z,32.9
2018-03-08T01:59:12.488Z,33.6
2018-03-08T02:00:02.949Z,34.3
2018-03-08T02:00:52.192Z,34.3
2018-03-08T02:01:42.996Z,33.9
2018-03-08T02:02:31.273Z,33.6
2018-03-08T02:03:22.554Z,33.4
2018-03-08T02:04:11.344Z,33.3
2018-03-08T02:05:02.777Z,33.2
2018-03-08T02:05:52.881Z,33.1
2018-03-08T02:06:42.283Z,32.9
2018-03-08T02:07:33.836Z,32.9
2018-03-08T02:08:22.876Z,32.7
2018-03-08T02:09:12.253Z,32.6
2018-03-08T02:10:03.458Z,32.4
2018-03-08T02:10:52.448Z,32.3
2018-03-08T02:11:43.658Z,31.8
2018-03-08T02:12:32.064Z,31.3
2018-03-08T02:13:23.397Z,30.9
2018-03-08T02:14:13.566Z,30.8
2018-03-08T02:15:03.371Z,30.5
2018-03-08T02:15:53.615Z,29.9
2018-03-08T02:16:43.567Z,30.4
2018-03-08T02:17:34.119Z,31
2018-03-08T02:18:24.077Z,31.6
2018-03-08T02:19:12.991Z,32.3
2018-03-08T02:20:03.222Z,32.9
2018-03-08T02:20:53.354Z,33.5
2018-03-08T02:21:43.740Z,34.1
2018-03-08T02:22:34.370Z,34.3
2018-03-08T02:23:24.274Z,33.9
2018-03-08T02:24:14.073Z,33.6
2018-03-08T02:25:03.044Z,33.4
2018-03-08T02:25:54.260Z,33.3
2018-03-08T02:26:43.307Z,33.1
2018-03-08T02:27:34.959Z,33
2018-03-08T02:28:24.216Z,32.9
2018-03-08T02:29:14.537Z,32.8
2018-03-08T02:30:04.706Z,32.6
2018-03-08T02:30:54.045Z,32.5
2018-03-08T02:31:45.023Z,32.4
2018-03-08T02:32:34.484Z,32.3
2018-03-08T02:33:24.940Z,32.1
2018-03-08T02:34:14.667Z,31.9
2018-03-08T02:35:05.636Z,31.9
2018-03-08T02:35:54.485Z,31.7
2018-03-08T02:36:44.091Z,31.6
2018-03-08T02:37:34.624Z,31.4
2018-03-08T02:38:24.131Z,31.3
2018-03-08T02:39:15.441Z,31.2
2018-03-08T02:40:05.644Z,31.1
2018-03-08T02:40:54.819Z,30.9
2018-03-08T02:41:44.362Z,30.8
2018-03-08T02:42:34.293Z,30.6
2018-03-08T02:43:24.841Z,30.1
2018-03-08T02:44:15.559Z,30.3
2018-03-08T02:45:05.896Z,30.8
2018-03-08T02:45:54.870Z,31.3
2018-03-08T02:46:45.513Z,31.8
2018-03-08T02:47:35.395Z,32.4
2018-03-08T02:48:25.934Z,33
2018-03-08T02:49:14.895Z,33.6
2018-03-08T02:50:05.032Z,34.3
2018-03-08T02:50:56.643Z,34.4
2018-03-08T02:51:46.145Z,34
2018-03-08T02:52:35.897Z,33.7
2018-03-08T02:53:26.248Z,33.5
2018-03-08T02:54:15.786Z,33.3
2018-03-08T02:55:06.723Z,33.2
2018-03-08T02:55:56.821Z,33.1
2018-03-08T02:56:46.744Z,33
2018-03-08T02:57:36.107Z,32.9
2018-03-08T02:58:26.726Z,32.7
2018-03-08T02:59:17.233Z,32.6
2018-03-08T03:00:07.027Z,32.4
2018-03-08T03:00:56.758Z,32.3
2018-03-08T03:01:46.857Z,32.2
2018-03-08T03:02:36.143Z,32
2018-03-08T03:03:26.209Z,31.9
2018-03-08T03:04:16.869Z,31.8
2018-03-08T03:05:06.985Z,31.6
2018-03-08T03:05:56.434Z,31.5
2018-03-08T03:06:46.045Z,31.4
2018-03-08T03:07:37.280Z,31.1
2018-03-08T03:08:26.574Z,30.2
2018-03-08T03:09:17.431Z,30.1
2018-03-08T03:10:07.209Z,30.8
2018-03-08T03:10:57.167Z,31.3
2018-03-08T03:11:46.585Z,31.9
2018-03-08T03:12:37.600Z,32.4
2018-03-08T03:13:27.684Z,33.1
2018-03-08T03:14:17.989Z,33.7
2018-03-08T03:15:07.471Z,34.3
2018-03-08T03:15:57.202Z,34.3
2018-03-08T03:16:48.449Z,33.8
2018-03-08T03:17:37.383Z,33.6
2018-03-08T03:18:29.027Z,33.4
2018-03-08T03:19:19.150Z,33.3
2018-03-08T03:20:09.478Z,33.1
2018-03-08T03:20:58.930Z,33
2018-03-08T03:21:49.008Z,32.9
2018-03-08T03:22:39.311Z,32.8
2018-03-08T03:23:29.417Z,32.6
2018-03-08T03:24:19.155Z,32.4
2018-03-08T03:25:08.373Z,32.3
2018-03-08T03:25:58.930Z,32.2
2018-03-08T03:26:48.284Z,32.1
2018-03-08T03:27:37.268Z,31.9
2018-03-08T03:28:28.435Z,31.8
2018-03-08T03:29:18.036Z,31.7
2018-03-08T03:30:08.530Z,31.5
2018-03-08T03:30:58.420Z,31.4
2018-03-08T03:31:47.706Z,31.3
2018-03-08T03:32:38.658Z,31.1
2018-03-08T03:33:29.883Z,31
2018-03-08T03:34:19.613Z,30.9
2018-03-08T03:35:08.929Z,30.8
2018-03-08T03:35:59.061Z,30.6
2018-03-08T03:36:48.517Z,30.1
2018-03-08T03:37:39.029Z,30.4
2018-03-08T03:38:28.279Z,30.9
2018-03-08T03:39:18.801Z,31.4
2018-03-08T03:40:09.315Z,32
2018-03-08T03:40:59.602Z,32.5
2018-03-08T03:41:49.591Z,33.1
2018-03-08T03:42:40.033Z,33.7
2018-03-08T03:43:29.816Z,34.4
2018-03-08T03:44:19.365Z,34.3
2018-03-08T03:45:10.164Z,33.9
2018-03-08T03:46:00.524Z,33.6
2018-03-08T03:46:49.960Z,33.4
2018-03-08T03:47:40.443Z,33.3
2018-03-08T03:48:30.021Z,33.1
2018-03-08T03:49:20.299Z,33
2018-03-08T03:50:10.483Z,32.9
2018-03-08T03:51:01.612Z,32.8
2018-03-08T03:51:51.635Z,32.6
2018-03-08T03:52:41.422Z,32.4
2018-03-08T03:53:31.732Z,32.3
2018-03-08T03:54:21.579Z,32.2
2018-03-08T03:55:11.637Z,32.1
2018-03-08T03:56:01.095Z,31.9
2018-03-08T03:56:49.645Z,31.8
2018-03-08T03:57:40.219Z,31.6
2018-03-08T03:58:31.037Z,31.3
2018-03-08T03:59:20.559Z,30.8
2018-03-08T04:00:10.743Z,30.1
2018-03-08T04:00:59.770Z,30.3
2018-03-08T04:01:50.379Z,30.9
2018-03-08T04:02:40.639Z,31.4
2018-03-08T04:03:31.037Z,32.1
2018-03-08T04:04:20.680Z,32.6
2018-03-08T04:05:10.272Z,33.3
2018-03-08T04:06:00.687Z,33.9
2018-03-08T04:06:51.789Z,34.6
2018-03-08T04:07:41.436Z,34.1
2018-03-08T04:08:30.890Z,33.8
2018-03-08T04:09:22.286Z,33.6
2018-03-08T04:10:11.109Z,33.4
2018-03-08T04:11:01.036Z,33.3
2018-03-08T04:11:51.669Z,33.1
2018-03-08T04:12:41.622Z,33
2018-03-08T04:13:31.378Z,32.9
2018-03-08T04:14:22.160Z,32.7
2018-03-08T04:15:11.444Z,32.5
2018-03-08T04:16:01.782Z,32.4
2018-03-08T04:16:52.260Z,32.3
2018-03-08T04:17:42.950Z,32.2
2018-03-08T04:18:31.657Z,32.1
2018-03-08T04:19:22.099Z,31.9
2018-03-08T04:20:11.966Z,31.8
2018-03-08T04:21:01.658Z,31.6
2018-03-08T04:21:52.473Z,31.5
2018-03-08T04:22:42.106Z,31.4
2018-03-08T04:23:32.619Z,31.2
2018-03-08T04:24:22.284Z,30.8
2018-03-08T04:25:26.559Z,29.9
2018-03-08T04:26:02.393Z,30.3
2018-03-08T04:26:52.840Z,30.8
2018-03-08T04:27:42.293Z,31.3
2018-03-08T04:28:32.811Z,31.9
2018-03-08T04:29:22.683Z,32.5
2018-03-08T04:30:12.578Z,33.1
2018-03-08T04:31:02.231Z,33.7
2018-03-08T04:31:53.196Z,34.3
2018-03-08T04:32:42.614Z,34.1
2018-03-08T04:33:33.341Z,33.7
2018-03-08T04:34:24.248Z,33.4
2018-03-08T04:35:12.914Z,33.3
2018-03-08T04:36:03.233Z,33.1
2018-03-08T04:36:53.281Z,33
2018-03-08T04:37:43.190Z,32.8
2018-03-08T04:38:33.325Z,32.7
2018-03-08T04:39:23.006Z,32.6
2018-03-08T04:40:13.633Z,32.5
2018-03-08T04:41:03.142Z,32.3
2018-03-08T04:41:53.682Z,32.2
2018-03-08T04:42:44.414Z,32.1
2018-03-08T04:43:33.439Z,31.9
2018-03-08T04:44:23.535Z,31.8
2018-03-08T04:45:13.832Z,31.6
2018-03-08T04:46:03.912Z,31.5
2018-03-08T04:46:53.500Z,31.3
2018-03-08T04:47:44.284Z,31.3
2018-03-08T04:48:34.484Z,31.1
2018-03-08T04:49:24.729Z,30.9
2018-03-08T04:50:14.487Z,30.8
2018-03-08T04:51:04.661Z,30.7
2018-03-08T04:51:53.629Z,30.6
2018-03-08T04:52:44.660Z,30.4
2018-03-08T04:53:33.905Z,30.3
2018-03-08T04:54:24.834Z,30.2
2018-03-08T04:55:14.324Z,30
2018-03-08T04:56:04.776Z,29.6
2018-03-08T04:56:54.043Z,30
2018-03-08T04:57:45.269Z,30.6
2018-03-08T04:58:35.143Z,31.1
2018-03-08T04:59:24.029Z,31.7
2018-03-08T05:00:15.379Z,32.2
2018-03-08T05:01:04.637Z,32.8
2018-03-08T05:01:55.314Z,33.4
2018-03-08T05:02:44.370Z,34.1
2018-03-08T05:03:34.955Z,34.3
2018-03-08T05:04:24.400Z,33.8
2018-03-08T05:05:15.355Z,33.6
2018-03-08T05:06:05.573Z,33.4
2018-03-08T05:06:55.839Z,33.3
2018-03-08T05:07:45.453Z,33.1
2018-03-08T05:08:35.152Z,32.9
2018-03-08T05:09:26.170Z,32.8
2018-03-08T05:10:15.580Z,32.7
2018-03-08T05:11:05.528Z,32.6
2018-03-08T05:11:55.501Z,32.4
2018-03-08T05:12:46.314Z,32.3
2018-03-08T05:13:36.180Z,31.8
2018-03-08T05:14:26.258Z,31.3
2018-03-08T05:15:15.545Z,30.9
2018-03-08T05:16:06.261Z,30.8
2018-03-08T05:16:56.404Z,30.6
2018-03-08T05:17:45.984Z,30.4
2018-03-08T05:18:36.145Z,30.3
2018-03-08T05:19:26.712Z,30.2
2018-03-08T05:20:16.177Z,29.6
2018-03-08T05:21:06.606Z,30.1
2018-03-08T05:21:56.754Z,30.9
2018-03-08T05:22:46.168Z,31.5
2018-03-08T05:23:36.309Z,32.2
2018-03-08T05:24:26.893Z,32.8
2018-03-08T05:25:17.101Z,33.4
2018-03-08T05:26:07.493Z,34.2
2018-03-08T05:26:56.438Z,34.4
2018-03-08T05:27:46.790Z,33.9
2018-03-08T05:28:36.934Z,33.7
2018-03-08T05:29:26.133Z,33.5
2018-03-08T05:30:16.083Z,33.4
2018-03-08T05:31:07.041Z,33.3
2018-03-08T05:31:57.942Z,33.1
2018-03-08T05:32:45.856Z,33
2018-03-08T05:33:38.490Z,32.8
2018-03-08T05:34:28.600Z,32.6
2018-03-08T05:35:18.235Z,32.5
2018-03-08T05:36:08.141Z,32.4
2018-03-08T05:36:58.748Z,32.3
2018-03-08T05:37:48.892Z,32.1
2018-03-08T05:38:38.667Z,31.9
2018-03-08T05:39:28.957Z,31.8
2018-03-08T05:40:18.711Z,31.7
2018-03-08T05:41:08.588Z,31.6
2018-03-08T05:41:58.313Z,31.4
2018-03-08T05:42:48.151Z,31.3
2018-03-08T05:43:38.725Z,31.1
2018-03-08T05:44:28.429Z,31
2018-03-08T05:45:18.025Z,30.9
2018-03-08T05:46:08.550Z,30.8
2018-03-08T05:46:58.104Z,30.6
2018-03-08T05:47:47.908Z,30.5
2018-03-08T05:48:38.894Z,30.4
2018-03-08T05:49:28.434Z,30.3
2018-03-08T05:50:18.150Z,29.9
2018-03-08T05:51:08.630Z,29.9
2018-03-08T05:51:57.979Z,30.4
2018-03-08T05:52:49.091Z,30.9
2018-03-08T05:53:39.682Z,31.4
2018-03-08T05:54:27.760Z,32.1
2018-03-08T05:55:17.779Z,32.6
2018-03-08T05:56:08.382Z,33.3
2018-03-08T05:56:58.732Z,33.9
2018-03-08T05:57:48.572Z,34.6
2018-03-08T05:58:38.700Z,34.1
2018-03-08T05:59:29.182Z,33.7
2018-03-08T06:00:19.744Z,33.5
2018-03-08T06:01:09.988Z,33.4
2018-03-08T06:01:58.861Z,33.3
2018-03-08T06:02:49.438Z,33.1
2018-03-08T06:03:39.186Z,33
2018-03-08T06:04:29.684Z,32.9
2018-03-08T06:05:18.397Z,32.8
2018-03-08T06:06:09.394Z,32.6
2018-03-08T06:06:59.108Z,32.4
2018-03-08T06:07:48.996Z,32.3
2018-03-08T06:08:39.362Z,32.1
2018-03-08T06:09:28.993Z,32
2018-03-08T06:10:19.578Z,31.9
2018-03-08T06:11:09.357Z,31.8
2018-03-08T06:11:58.698Z,31.6
2018-03-08T06:12:49.846Z,31.4
2018-03-08T06:13:40.273Z,31.3
2018-03-08T06:14:30.520Z,31.1
2018-03-08T06:15:19.778Z,31
2018-03-08T06:16:08.988Z,30.9
2018-03-08T06:16:59.746Z,30.7
2018-03-08T06:17:50.301Z,30.6
2018-03-08T06:18:39.928Z,30.4
2018-03-08T06:19:30.045Z,30.3
2018-03-08T06:20:20.476Z,30.2
2018-03-08T06:21:10.215Z,29.9
2018-03-08T06:22:00.561Z,29.8
2018-03-08T06:22:50.150Z,30.3
2018-03-08T06:23:42.322Z,30.9
2018-03-08T06:24:31.083Z,31.5
2018-03-08T06:25:21.615Z,32.1
2018-03-08T06:26:11.949Z,32.7
2018-03-08T06:27:01.498Z,33.3
2018-03-08T06:27:52.052Z,34
2018-03-08T06:28:41.922Z,34.4
2018-03-08T06:29:31.118Z,33.9
2018-03-08T06:30:21.789Z,33.6
2018-03-08T06:31:09.727Z,33.4
2018-03-08T06:32:02.329Z,33.3
2018-03-08T06:32:51.575Z,33.1
2018-03-08T06:33:42.496Z,33
2018-03-08T06:34:32.565Z,32.9
2018-03-08T06:35:22.008Z,32.8
2018-03-08T06:36:12.071Z,32.6
2018-03-08T06:37:02.710Z,32.5
2018-03-08T06:37:52.210Z,32.4
2018-03-08T06:38:42.736Z,32.2
2018-03-08T18:45:01.432Z,32.6
2018-03-08T18:45:51.119Z,32.4
2018-03-08T18:46:42.185Z,32.3
2018-03-08T18:47:31.345Z,32.1
2018-03-08T18:48:21.852Z,31.9
2018-03-08T18:49:12.126Z,31.8
2018-03-08T18:50:02.403Z,31.7
2018-03-08T18:50:51.559Z,31.6
2018-03-08T18:51:42.466Z,31.4
2018-03-08T18:52:33.677Z,31.3
2018-03-08T18:53:23.405Z,31.1
2018-03-08T18:54:13.185Z,30.9
2018-03-08T18:55:03.622Z,30.8
2018-03-08T18:55:53.293Z,30.7
2018-03-08T18:56:43.186Z,30.6
2018-03-08T18:57:32.722Z,30.4
2018-03-08T18:58:22.169Z,30.2
2018-03-08T18:59:12.839Z,29.8
2018-03-08T19:00:01.933Z,30.3
2018-03-08T19:00:52.896Z,30.9
2018-03-08T19:01:42.264Z,31.4
2018-03-08T19:02:32.636Z,31.9
2018-03-08T19:03:22.905Z,32.4
2018-03-08T19:04:12.901Z,33
2018-03-08T19:05:03.258Z,33.6
2018-03-08T19:05:53.601Z,34.1
2018-03-08T19:06:43.271Z,34.8
2018-03-08T19:07:33.366Z,34.4
2018-03-08T19:08:24.107Z,33.9
2018-03-08T19:09:13.248Z,33.6
2018-03-08T19:10:03.498Z,33.4
2018-03-08T19:10:53.076Z,33.3
2018-03-08T19:11:43.583Z,33.1
2018-03-08T19:12:33.456Z,33
2018-03-08T19:13:23.283Z,32.9
2018-03-08T19:14:12.615Z,32.8
2018-03-08T19:15:03.778Z,32.6
2018-03-08T19:15:53.308Z,32.4
2018-03-08T19:16:43.347Z,32.3
2018-03-08T19:17:32.831Z,32.2
2018-03-08T19:18:24.268Z,32.1
2018-03-08T19:19:13.768Z,31.9
2018-03-08T19:20:04.310Z,31.8
2018-03-08T19:20:54.515Z,31.7
2018-03-08T19:21:44.037Z,31.5
2018-03-08T19:22:34.502Z,31.4
2018-03-08T19:23:23.631Z,31.3
2018-03-08T19:24:13.734Z,31.1
2018-03-08T19:25:04.517Z,30.9
2018-03-08T19:25:54.341Z,30.8
2018-03-08T19:26:42.743Z,30.6
2018-03-08T19:27:34.454Z,30.5
2018-03-08T19:28:23.682Z,30.4
2018-03-08T19:29:14.852Z,30.1
2018-03-08T19:30:05.239Z,29.9
2018-03-08T19:30:55.247Z,30.4
2018-03-08T19:31:44.089Z,30.9
2018-03-08T19:32:35.055Z,31.4
2018-03-08T19:33:25.158Z,32
2018-03-08T19:34:14.300Z,32.5
2018-03-08T19:35:05.326Z,33.1
2018-03-08T19:35:55.049Z,33.6
2018-03-08T19:36:46.822Z,34.2
2018-03-08T19:37:36.034Z,34.8
2018-03-08T19:38:26.869Z,34.4
2018-03-08T19:39:16.343Z,33.9
2018-03-08T19:40:06.380Z,33.6
2018-03-08T19:40:56.193Z,33.4
2018-03-08T19:41:46.218Z,33.3
2018-03-08T19:42:37.109Z,33.1
2018-03-08T19:43:25.278Z,33
2018-03-08T19:44:15.934Z,32.8
2018-03-08T19:45:05.466Z,32.7
2018-03-08T19:45:55.501Z,32.5
2018-03-08T19:46:45.943Z,32.4
2018-03-08T19:47:35.757Z,32.3
2018-03-08T19:48:26.636Z,32.1
2018-03-08T19:49:16.521Z,32
2018-03-08T19:50:06.710Z,31.9
2018-03-08T19:50:55.603Z,31.7
2018-03-08T19:51:46.471Z,31.6
2018-03-08T19:52:35.987Z,31.4
2018-03-08T19:53:26.508Z,31.3
2018-03-08T19:54:15.596Z,31.1
2018-03-08T19:55:06.367Z,31.1
2018-03-08T19:55:56.776Z,30.6
2018-03-08T19:56:45.467Z,29.7
2018-03-08T19:57:36.332Z,29.8
2018-03-08T19:58:26.765Z,30.4
2018-03-08T19:59:16.735Z,30.9
2018-03-08T20:00:07.208Z,31.5
2018-03-08T20:00:56.725Z,32.1
2018-03-08T20:01:48.425Z,32.6
2018-03-08T20:02:37.720Z,33.1
2018-03-08T20:03:27.757Z,33.6
2018-03-08T20:04:18.185Z,34.2
2018-03-08T20:05:08.430Z,34.7
2018-03-08T20:05:57.693Z,34.1
2018-03-08T20:06:48.637Z,33.8
2018-03-08T20:07:38.120Z,33.4
2018-03-08T20:08:28.704Z,33.3
2018-03-08T20:09:18.437Z,33.1
2018-03-08T20:10:08.535Z,33
2018-03-08T20:10:58.325Z,32.9
2018-03-08T20:11:48.669Z,32.8
2018-03-08T20:12:38.664Z,32.6
2018-03-08T20:13:28.752Z,32.5
2018-03-08T20:14:18.227Z,32.3
2018-03-08T20:15:09.485Z,32.2
2018-03-08T20:15:58.901Z,31.6
2018-03-08T20:16:49.012Z,31.1
2018-03-08T20:17:39.274Z,30.8
2018-03-08T20:18:29.619Z,30.6
2018-03-08T20:19:19.396Z,30.4
2018-03-08T20:20:09.240Z,30.2
2018-03-08T20:20:59.242Z,30
2018-03-08T20:21:47.219Z,29.5
2018-03-08T20:22:38.642Z,30.1
2018-03-08T20:23:28.594Z,30.8
2018-03-08T20:24:18.449Z,31.4
2018-03-08T20:25:08.411Z,32
2018-03-08T20:25:58.773Z,32.6
2018-03-08T20:26:48.554Z,33.1
2018-03-08T20:27:38.998Z,33.6
2018-03-08T20:28:28.558Z,34.3
2018-03-08T20:29:19.209Z,34.8
2018-03-08T20:30:09.396Z,34.3
2018-03-08T20:30:58.623Z,33.8
2018-03-08T20:31:49.003Z,33.5
2018-03-08T20:32:40.084Z,33.3
2018-03-08T20:33:29.020Z,33.1
2018-03-08T20:34:19.735Z,33
2018-03-08T20:35:09.088Z,32.8
2018-03-08T20:35:59.814Z,32.8
2018-03-08T20:36:49.395Z,32.6
2018-03-08T20:37:39.085Z,32.4
2018-03-08T20:38:28.910Z,32.3
2018-03-08T20:39:20.597Z,31.9
2018-03-08T20:40:09.513Z,31.3
2018-03-08T20:40:59.393Z,30.9
2018-03-08T20:41:49.012Z,30.6
2018-03-08T20:42:39.831Z,30.4
2018-03-08T20:43:29.420Z,29.7
2018-03-08T20:44:19.972Z,30.1
2018-03-08T20:45:10.380Z,30.7
2018-03-08T20:45:59.853Z,31.3
2018-03-08T20:46:50.217Z,31.9
2018-03-08T20:47:40.180Z,32.4
2018-03-08T20:48:30.200Z,33
2018-03-08T20:49:19.900Z,33.5
2018-03-08T20:50:09.705Z,34.1
2018-03-08T20:51:00.500Z,34.4
2018-03-08T20:51:49.959Z,33.8
2018-03-08T20:52:40.984Z,33.4
2018-03-08T20:53:30.766Z,33.2
2018-03-08T20:54:20.535Z,32.9
2018-03-08T20:55:09.824Z,32.8
2018-03-08T20:56:00.925Z,32.7
2018-03-08T20:56:50.424Z,32.6
2018-03-08T20:57:40.624Z,32.4
2018-03-08T20:58:30.954Z,32.3
2018-03-08T20:59:20.892Z,32.1
2018-03-08T21:00:10.640Z,32
2018-03-08T21:01:00.574Z,31.8
2018-03-08T21:01:51.048Z,31.3
2018-03-08T21:02:41.157Z,30.8
2018-03-08T21:03:31.818Z,30.5
2018-03-08T21:04:21.572Z,30.3
2018-03-08T21:05:11.337Z,29.6
2018-03-08T21:06:00.942Z,30.1
2018-03-08T21:06:51.521Z,30.7
2018-03-08T21:07:41.299Z,31.3
2018-03-08T21:08:31.822Z,31.9
2018-03-08T21:09:20.904Z,32.4
2018-03-08T21:10:11.995Z,32.9
2018-03-08T21:11:00.534Z,33.5
2018-03-08T21:11:51.879Z,34.1
2018-03-08T21:12:41.596Z,34.4
2018-03-08T21:13:30.898Z,33.8
2018-03-08T21:14:20.658Z,33.4
2018-03-08T21:15:12.422Z,33.2
2018-03-08T21:16:00.662Z,33
2018-03-08T21:16:51.617Z,32.8
2018-03-08T21:17:41.774Z,32.7
2018-03-08T21:18:32.979Z,32.6
2018-03-08T21:19:23.605Z,32.4
2018-03-08T21:20:13.891Z,32.3
2018-03-08T21:21:03.657Z,32.2
2018-03-08T21:21:53.561Z,32
2018-03-08T21:22:44.043Z,31.8
2018-03-08T21:23:33.580Z,31.3
2018-03-08T21:24:23.935Z,30.8
2018-03-08T21:25:13.763Z,30.4
2018-03-08T21:26:03.735Z,30.2
2018-03-08T21:26:54.366Z,29.6
2018-03-08T21:27:43.338Z,30
2018-03-08T21:28:34.482Z,30.7
2018-03-08T21:29:24.012Z,31.3
2018-03-08T21:30:14.298Z,31.9
2018-03-08T21:31:04.367Z,32.4
2018-03-08T21:31:54.449Z,33
2018-03-08T21:32:44.458Z,33.5
2018-03-08T21:33:34.571Z,34.1
2018-03-08T21:34:24.958Z,34.4
2018-03-08T21:35:14.425Z,33.8
2018-03-08T21:36:04.463Z,33.4
2018-03-08T21:36:54.790Z,33.2
2018-03-08T21:37:44.882Z,33
2018-03-08T21:38:34.662Z,32.8
2018-03-08T21:39:24.711Z,32.7
2018-03-08T21:40:15.310Z,32.6
2018-03-08T21:41:04.865Z,32.4
2018-03-08T21:41:55.248Z,32.3
2018-03-08T21:42:45.483Z,32.2
2018-03-08T21:43:34.712Z,32
2018-03-08T21:44:25.350Z,31.9
2018-03-08T21:45:14.557Z,31.3
2018-03-08T21:46:05.212Z,30.9
2018-03-08T21:46:55.250Z,30.4
2018-03-08T21:47:44.558Z,30.2
2018-03-08T21:48:35.222Z,29.7
2018-03-08T21:49:24.891Z,29.9
2018-03-08T21:50:15.585Z,30.6
2018-03-08T21:51:05.364Z,31.2
2018-03-08T21:51:55.396Z,31.8
2018-03-08T21:52:45.422Z,32.3
2018-03-08T21:53:36.235Z,32.9
2018-03-08T21:54:25.489Z,33.4
2018-03-08T21:55:15.794Z,34
2018-03-08T21:56:05.619Z,34.6
2018-03-08T21:56:55.909Z,34.1
2018-03-08T21:57:46.072Z,33.6
2018-03-08T21:58:35.484Z,33.4
2018-03-08T21:59:25.642Z,33.2
2018-03-08T22:00:16.489Z,33
2018-03-08T22:01:06.593Z,32.8
2018-03-08T22:01:55.985Z,32.8
2018-03-08T22:02:46.309Z,32.6
2018-03-08T22:03:36.397Z,32.4
2018-03-08T22:04:27.048Z,32.3
2018-03-08T22:05:16.512Z,32.2
2018-03-08T22:06:06.608Z,32.1
2018-03-08T22:06:56.596Z,31.6
2018-03-08T22:07:46.972Z,31.1
2018-03-08T22:08:37.255Z,30.7
2018-03-08T22:09:27.338Z,30.4
2018-03-08T22:10:16.854Z,30
2018-03-08T22:11:06.912Z,29.6
2018-03-08T22:11:57.346Z,30.3
2018-03-08T22:12:46.721Z,30.9
2018-03-08T22:13:37.643Z,31.5
2018-03-08T22:14:27.661Z,32
2018-03-08T22:15:17.715Z,32.5
2018-03-08T22:16:07.502Z,33.1
2018-03-08T22:16:57.844Z,33.6
2018-03-08T22:17:47.658Z,34.3
2018-03-08T22:18:37.413Z,34.2
2018-03-08T22:19:28.028Z,33.7
2018-03-08T22:20:17.521Z,33.4
2018-03-08T22:21:08.152Z,33.2
2018-03-08T22:21:57.940Z,33
2018-03-08T22:22:47.997Z,32.9
2018-03-08T22:23:38.010Z,32.7
2018-03-08T22:24:28.061Z,32.6
2018-03-08T22:25:18.435Z,32.4
2018-03-08T22:26:07.906Z,32.3
2018-03-08T22:26:58.251Z,32.1
2018-03-08T22:27:48.602Z,32
2018-03-08T22:28:37.169Z,31.6
2018-03-08T22:29:27.722Z,31.1
2018-03-08T22:30:17.194Z,30.7
2018-03-08T22:31:07.157Z,30.4
2018-03-08T22:31:57.377Z,30.1
2018-03-08T22:32:48.082Z,29.6
2018-03-08T22:33:37.418Z,30.1
2018-03-08T22:34:26.837Z,30.8
2018-03-08T22:35:17.559Z,31.4
2018-03-08T22:36:08.386Z,32.1
2018-03-08T22:36:57.370Z,32.6
2018-03-08T22:37:48.005Z,33.2
2018-03-08T22:38:37.677Z,33.8
2018-03-08T22:39:28.006Z,34.4
2018-03-08T22:40:18.500Z,34.4
2018-03-08T22:41:07.079Z,33.9
2018-03-08T22:41:58.082Z,33.6
2018-03-08T22:42:48.569Z,33.4
2018-03-08T22:43:38.619Z,33.1
2018-03-08T22:44:27.996Z,33.1
2018-03-08T22:45:17.849Z,32.9
2018-03-08T22:46:08.785Z,32.8
2018-03-08T22:46:57.737Z,32.6
2018-03-08T22:47:48.681Z,32.5
2018-03-08T22:48:37.296Z,32.4
2018-03-08T22:49:28.392Z,32.3
2018-03-08T22:50:19.296Z,31.9
2018-03-08T22:51:08.839Z,31.3
2018-03-08T22:51:58.344Z,30.9
2018-03-08T22:52:50.071Z,30.6
2018-03-08T22:53:39.873Z,30.3
2018-03-08T22:54:30.179Z,29.8
2018-03-08T22:55:20.285Z,30.1
2018-03-08T22:56:10.058Z,30.8
2018-03-08T22:57:00.382Z,31.4
2018-03-08T22:57:50.436Z,32
2018-03-08T22:58:39.925Z,32.6
2018-03-08T22:59:30.613Z,33.1
2018-03-08T23:00:19.742Z,33.7
2018-03-08T23:01:10.348Z,34.3
2018-03-08T23:02:00.501Z,34.7
2018-03-08T23:02:50.757Z,34.1
2018-03-08T23:03:40.858Z,33.8
2018-03-08T23:04:30.647Z,33.5
2018-03-08T23:05:20.728Z,33.3
2018-03-08T23:06:10.968Z,33.1
2018-03-08T23:07:00.772Z,33
2018-03-08T23:07:50.820Z,32.9
2018-03-08T23:08:40.873Z,32.8
2018-03-08T23:09:30.990Z,32.6
2018-03-08T23:10:21.297Z,32.5
2018-03-08T23:11:11.335Z,32.4
2018-03-08T23:12:01.145Z,32.1
2018-03-08T23:12:50.990Z,31.5
2018-03-08T23:13:41.547Z,31.1
2018-03-08T23:14:32.086Z,30.8
2018-03-08T23:15:21.372Z,30.5